Terminal Aerodrome Forecast
Issued by NWS Atlanta, GA

Home | Current Version | Previous Version | Text Only | Print | Product List | Glossary On
Versions: 1 2 3 4 5 6 7 8 9 10 11 12 13 14 15 16 17 18 19 20 21 22 23 24 25 26 27 28 29 30 31 32 33 34 35
000
FTUS42 KFFC 202100 AAA
TAFAHN
TAF AMD
KAHN 202100Z 2021/2118 05005KT 3SM BR OVC005
      TEMPO 2021/2023 2SM BR
     FM210000 05005KT 5SM BR OVC015
     FM210700 05003KT 3SM BR OVC015
     FM210900 05003KT 2SM BR OVC009
     FM211400 06005KT 4SM BR OVC015=

USA.gov is the U.S. government's official web portal to all federal, state and local government web resources and services.